sensor_id;sensor_type;location;lat;lon;timestamp;P1;durP1;ratioP1;P2;durP2;ratioP2
44126;SDS011;29786;50.798;7.302;2022-09-13T00:00:14;3.2;;;2.4;;
44126;SDS011;29786;50.798;7.302;2022-09-13T00:01:14;2.7;;;2.4;;
44126;SDS011;29786;50.798;7.302;2022-09-13T00:02:14;2.9;;;2.5;;
44126;SDS011;29786;50.798;7.302;2022-09-13T00:03:15;3.3;;;2.2;;
44126;SDS011;29786;50.798;7.302;2022-09-13T00:04:14;3.9;;;2.4;;
44126;SDS011;29786;50.798;7.302;2022-09-13T00:05:14;3.2;;;2.4;;
44126;SDS011;29786;50.798;7.302;2022-09-13T00:06:16;2.9;;;2.6;;
44126;SDS011;29786;50.798;7.302;2022-09-13T00:07:14;4.3;;;2.6;;
44126;SDS011;29786;50.798;7.302;2022-09-13T00:08:15;3;;;2.2;;
44126;SDS011;29786;50.798;7.302;2022-09-13T00:09:14;3.9;;;2.4;;
44126;SDS011;29786;50.798;7.302;2022-09-13T00:10:14;2.7;;;2.1;;
44126;SDS011;29786;50.798;7.302;2022-09-13T00:11:16;2.7;;;2.3;;
44126;SDS011;29786;50.798;7.302;2022-09-13T00:12:14;3.3;;;2.6;;
44126;SDS011;29786;50.798;7.302;2022-09-13T00:13:15;2.8;;;2.5;;
44126;SDS011;29786;50.798;7.302;2022-09-13T00:14:14;3.5;;;2.8;;
44126;SDS011;29786;50.798;7.302;2022-09-13T00:15:14;2.8;;;2.3;;
44126;SDS011;29786;50.798;7.302;2022-09-13T00:16:15;4;;;2.5;;
44126;SDS011;29786;50.798;7.302;2022-09-13T00:17:14;4;;;2.6;;
44126;SDS011;29786;50.798;7.302;2022-09-13T00:18:15;5.4;;;2.5;;
44126;SDS011;29786;50.798;7.302;2022-09-13T00:19:14;3.2;;;2.9;;
44126;SDS011;29786;50.798;7.302;2022-09-13T00:20:14;3;;;2.5;;
44126;SDS011;29786;50.798;7.302;2022-09-13T00:21:16;3;;;2.6;;
44126;SDS011;29786;50.798;7.302;2022-09-13T00:22:14;3;;;2.5;;
44126;SDS011;29786;50.798;7.302;2022-09-13T00:23:14;3.7;;;2.5;;
44126;SDS011;29786;50.798;7.302;2022-09-13T00:24:14;4.1;;;2.6;;
44126;SDS011;29786;50.798;7.302;2022-09-13T00:25:14;3;;;2.5;;
44126;SDS011;29786;50.798;7.302;2022-09-13T00:26:17;5.4;;;2.6;;
44126;SDS011;29786;50.798;7.302;2022-09-13T00:27:14;4;;;2.6;;
44126;SDS011;29786;50.798;7.302;2022-09-13T00:28:14;4.4;;;2.5;;
44126;SDS011;29786;50.798;7.302;2022-09-13T00:29:14;3.5;;;2.3;;
44126;SDS011;29786;50.798;7.302;2022-09-13T00:30:14;3.9;;;2.5;;
44126;SDS011;29786;50.798;7.302;2022-09-13T00:31:14;3.5;;;2.4;;
44126;SDS011;29786;50.798;7.302;2022-09-13T00:32:14;2.8;;;2.4;;
44126;SDS011;29786;50.798;7.302;2022-09-13T00:33:14;3.3;;;2.7;;
44126;SDS011;29786;50.798;7.302;2022-09-13T00:34:14;4.5;;;2.7;;
44126;SDS011;29786;50.798;7.302;2022-09-13T00:35:14;2.9;;;2.7;;
44126;SDS011;29786;50.798;7.302;2022-09-13T00:36:14;3.9;;;2.4;;
44126;SDS011;29786;50.798;7.302;2022-09-13T00:37:14;3.6;;;2.7;;
44126;SDS011;29786;50.798;7.302;2022-09-13T00:38:14;3.4;;;2.7;;
44126;SDS011;29786;50.798;7.302;2022-09-13T00:39:14;2.7;;;2.4;;
44126;SDS011;29786;50.798;7.302;2022-09-13T00:40:14;3.5;;;2.5;;
44126;SDS011;29786;50.798;7.302;2022-09-13T00:41:15;4.1;;;2.8;;
44126;SDS011;29786;50.798;7.302;2022-09-13T00:42:14;3.5;;;2.4;;
44126;SDS011;29786;50.798;7.302;2022-09-13T00:43:16;2.9;;;2.4;;
44126;SDS011;29786;50.798;7.302;2022-09-13T00:44:49;2.6;;;2.4;;
44126;SDS011;29786;50.798;7.302;2022-09-13T00:45:16;2.7;;;2.5;;
44126;SDS011;29786;50.798;7.302;2022-09-13T00:46:17;3.1;;;2.4;;
44126;SDS011;29786;50.798;7.302;2022-09-13T00:47:16;2.8;;;2.5;;
44126;SDS011;29786;50.798;7.302;2022-09-13T00:48:19;3.1;;;2.6;;
44126;SDS011;29786;50.798;7.302;2022-09-13T00:49:18;2.9;;;2.6;;
44126;SDS011;29786;50.798;7.302;2022-09-13T00:50:30;3.9;;;2.5;;
44126;SDS011;29786;50.798;7.302;2022-09-13T00:51:14;4.5;;;2.9;;
44126;SDS011;29786;50.798;7.302;2022-09-13T00:52:15;4.1;;;2.8;;
44126;SDS011;29786;50.798;7.302;2022-09-13T00:53:16;3.4;;;2.5;;
44126;SDS011;29786;50.798;7.302;2022-09-13T00:54:14;5.2;;;2.6;;
44126;SDS011;29786;50.798;7.302;2022-09-13T00:55:18;4.3;;;2.9;;
44126;SDS011;29786;50.798;7.302;2022-09-13T00:56:16;4.9;;;2.7;;
44126;SDS011;29786;50.798;7.302;2022-09-13T00:57:14;2.8;;;2.4;;
44126;SDS011;29786;50.798;7.302;2022-09-13T00:58:16;2.8;;;2.4;;
44126;SDS011;29786;50.798;7.302;2022-09-13T00:59:16;4.9;;;2.7;;
44126;SDS011;29786;50.798;7.302;2022-09-13T01:00:16;3.8;;;2.6;;
44126;SDS011;29786;50.798;7.302;2022-09-13T01:01:14;3.5;;;2.6;;
44126;SDS011;29786;50.798;7.302;2022-09-13T01:02:14;3.4;;;2.5;;
44126;SDS011;29786;50.798;7.302;2022-09-13T01:03:14;2.5;;;2.3;;
44126;SDS011;29786;50.798;7.302;2022-09-13T01:04:15;3.6;;;2.4;;
44126;SDS011;29786;50.798;7.302;2022-09-13T01:05:14;4.3;;;2.8;;
44126;SDS011;29786;50.798;7.302;2022-09-13T01:06:16;3.3;;;2.8;;
44126;SDS011;29786;50.798;7.302;2022-09-13T01:07:14;2.8;;;2.5;;
44126;SDS011;29786;50.798;7.302;2022-09-13T01:08:14;3;;;2.4;;
44126;SDS011;29786;50.798;7.302;2022-09-13T01:09:14;4.3;;;2.5;;
44126;SDS011;29786;50.798;7.302;2022-09-13T01:10:14;2.7;;;2.4;;
44126;SDS011;29786;50.798;7.302;2022-09-13T01:11:19;4.7;;;2.7;;
44126;SDS011;29786;50.798;7.302;2022-09-13T01:13:15;3.4;;;2.7;;
44126;SDS011;29786;50.798;7.302;2022-09-13T01:13:20;3.9;;;2.7;;
44126;SDS011;29786;50.798;7.302;2022-09-13T01:14:16;3.7;;;2.7;;
44126;SDS011;29786;50.798;7.302;2022-09-13T01:15:14;3.8;;;2.4;;
44126;SDS011;29786;50.798;7.302;2022-09-13T01:16:14;3.2;;;2.6;;
44126;SDS011;29786;50.798;7.302;2022-09-13T01:17:14;4.4;;;2.8;;
44126;SDS011;29786;50.798;7.302;2022-09-13T01:18:14;3;;;2.7;;
44126;SDS011;29786;50.798;7.302;2022-09-13T01:19:15;4.1;;;2.7;;
44126;SDS011;29786;50.798;7.302;2022-09-13T01:20:14;4.2;;;2.7;;
44126;SDS011;29786;50.798;7.302;2022-09-13T01:21:25;3.3;;;2.9;;
44126;SDS011;29786;50.798;7.302;2022-09-13T01:22:23;4.9;;;3.1;;
44126;SDS011;29786;50.798;7.302;2022-09-13T01:23:19;4.4;;;2.6;;
44126;SDS011;29786;50.798;7.302;2022-09-13T01:27:18;3.2;;;2.6;;
44126;SDS011;29786;50.798;7.302;2022-09-13T01:28:27;4.1;;;2.6;;
44126;SDS011;29786;50.798;7.302;2022-09-13T01:29:20;5.3;;;2.9;;
44126;SDS011;29786;50.798;7.302;2022-09-13T01:30:18;5.2;;;2.7;;
44126;SDS011;29786;50.798;7.302;2022-09-13T01:31:18;3.4;;;2.8;;
44126;SDS011;29786;50.798;7.302;2022-09-13T01:32:25;3.2;;;2.9;;
44126;SDS011;29786;50.798;7.302;2022-09-13T01:33:18;3.5;;;2.5;;
44126;SDS011;29786;50.798;7.302;2022-09-13T01:34:26;3.2;;;2.9;;
44126;SDS011;29786;50.798;7.302;2022-09-13T01:35:24;4.8;;;2.5;;
44126;SDS011;29786;50.798;7.302;2022-09-13T01:36:19;3.2;;;2.6;;
44126;SDS011;29786;50.798;7.302;2022-09-13T01:37:20;4.4;;;2.7;;
44126;SDS011;29786;50.798;7.302;2022-09-13T01:38:22;3.4;;;2.7;;
44126;SDS011;29786;50.798;7.302;2022-09-13T01:39:16;4.4;;;2.4;;
44126;SDS011;29786;50.798;7.302;2022-09-13T01:40:16;3.4;;;2.6;;
44126;SDS011;29786;50.798;7.302;2022-09-13T01:41:19;3.2;;;2.7;;
44126;SDS011;29786;50.798;7.302;2022-09-13T01:42:15;3.7;;;2.6;;
44126;SDS011;29786;50.798;7.302;2022-09-13T01:43:21;4;;;2.8;;
44126;SDS011;29786;50.798;7.302;2022-09-13T01:44:40;7.9;;;2.7;;
44126;SDS011;29786;50.798;7.302;2022-09-13T01:45:20;3.3;;;2.9;;
44126;SDS011;29786;50.798;7.302;2022-09-13T01:46:18;3.4;;;2.8;;
44126;SDS011;29786;50.798;7.302;2022-09-13T01:47:23;3.4;;;2.9;;
44126;SDS011;29786;50.798;7.302;2022-09-13T01:48:24;4.7;;;2.6;;
44126;SDS011;29786;50.798;7.302;2022-09-13T01:49:44;2.8;;;2.6;;
44126;SDS011;29786;50.798;7.302;2022-09-13T01:51:18;3;;;2.7;;
44126;SDS011;29786;50.798;7.302;2022-09-13T01:51:27;2.9;;;2.6;;
44126;SDS011;29786;50.798;7.302;2022-09-13T01:53:27;5;;;2.7;;
44126;SDS011;29786;50.798;7.302;2022-09-13T01:53:31;2.9;;;2.6;;
44126;SDS011;29786;50.798;7.302;2022-09-13T01:55:20;4.8;;;2.6;;
44126;SDS011;29786;50.798;7.302;2022-09-13T01:56:19;3.2;;;2.9;;
44126;SDS011;29786;50.798;7.302;2022-09-13T01:57:16;3.3;;;2.8;;
44126;SDS011;29786;50.798;7.302;2022-09-13T01:58:19;3.7;;;2.8;;
44126;SDS011;29786;50.798;7.302;2022-09-13T01:59:16;2.9;;;2.7;;
44126;SDS011;29786;50.798;7.302;2022-09-13T02:00:15;2.6;;;2.4;;
44126;SDS011;29786;50.798;7.302;2022-09-13T02:01:17;2.8;;;2.6;;
44126;SDS011;29786;50.798;7.302;2022-09-13T02:02:19;4.6;;;2.9;;
44126;SDS011;29786;50.798;7.302;2022-09-13T02:03:16;3.3;;;2.6;;
44126;SDS011;29786;50.798;7.302;2022-09-13T02:04:17;4.5;;;2.8;;
44126;SDS011;29786;50.798;7.302;2022-09-13T02:05:21;3.4;;;2.8;;
44126;SDS011;29786;50.798;7.302;2022-09-13T02:06:17;3.3;;;3;;
44126;SDS011;29786;50.798;7.302;2022-09-13T02:07:16;3.1;;;2.9;;
44126;SDS011;29786;50.798;7.302;2022-09-13T02:08:17;3.8;;;2.8;;
44126;SDS011;29786;50.798;7.302;2022-09-13T02:09:15;3.8;;;2.6;;
44126;SDS011;29786;50.798;7.302;2022-09-13T02:10:18;5.6;;;2.9;;
44126;SDS011;29786;50.798;7.302;2022-09-13T02:11:15;3.7;;;2.7;;
44126;SDS011;29786;50.798;7.302;2022-09-13T02:12:17;3.5;;;2.8;;
44126;SDS011;29786;50.798;7.302;2022-09-13T02:13:17;4.4;;;2.9;;
44126;SDS011;29786;50.798;7.302;2022-09-13T02:14:15;4.5;;;2.7;;
44126;SDS011;29786;50.798;7.302;2022-09-13T02:15:15;3.8;;;2.9;;
44126;SDS011;29786;50.798;7.302;2022-09-13T02:16:17;5.4;;;2.9;;
44126;SDS011;29786;50.798;7.302;2022-09-13T02:17:16;4.1;;;3;;
44126;SDS011;29786;50.798;7.302;2022-09-13T02:18:16;4.9;;;2.7;;
44126;SDS011;29786;50.798;7.302;2022-09-13T02:19:23;3.5;;;3;;
44126;SDS011;29786;50.798;7.302;2022-09-13T02:20:16;2.6;;;2.4;;
44126;SDS011;29786;50.798;7.302;2022-09-13T02:21:16;4.1;;;2.7;;
44126;SDS011;29786;50.798;7.302;2022-09-13T02:22:15;3.1;;;2.8;;
44126;SDS011;29786;50.798;7.302;2022-09-13T02:23:17;4.2;;;2.9;;
44126;SDS011;29786;50.798;7.302;2022-09-13T02:24:23;3.1;;;2.7;;
44126;SDS011;29786;50.798;7.302;2022-09-13T02:25:15;3.8;;;2.8;;
44126;SDS011;29786;50.798;7.302;2022-09-13T02:26:14;4;;;2.9;;
44126;SDS011;29786;50.798;7.302;2022-09-13T02:27:18;3.4;;;2.7;;
44126;SDS011;29786;50.798;7.302;2022-09-13T02:28:15;3.9;;;2.7;;
44126;SDS011;29786;50.798;7.302;2022-09-13T02:29:15;4.5;;;3.1;;
44126;SDS011;29786;50.798;7.302;2022-09-13T02:30:14;3.5;;;2.8;;
44126;SDS011;29786;50.798;7.302;2022-09-13T02:31:15;3.5;;;2.8;;
44126;SDS011;29786;50.798;7.302;2022-09-13T02:32:17;4.8;;;3;;
44126;SDS011;29786;50.798;7.302;2022-09-13T02:33:16;3.7;;;2.9;;
44126;SDS011;29786;50.798;7.302;2022-09-13T02:34:17;3.1;;;2.5;;
44126;SDS011;29786;50.798;7.302;2022-09-13T02:35:18;3.1;;;2.8;;
44126;SDS011;29786;50.798;7.302;2022-09-13T02:36:16;3.2;;;2.9;;
44126;SDS011;29786;50.798;7.302;2022-09-13T02:37:14;3.4;;;2.8;;
44126;SDS011;29786;50.798;7.302;2022-09-13T02:38:17;4.7;;;3;;
44126;SDS011;29786;50.798;7.302;2022-09-13T02:39:15;4.7;;;3;;
44126;SDS011;29786;50.798;7.302;2022-09-13T02:40:15;4.3;;;2.8;;
44126;SDS011;29786;50.798;7.302;2022-09-13T02:41:16;4.2;;;2.8;;
44126;SDS011;29786;50.798;7.302;2022-09-13T02:42:16;2.8;;;2.6;;
44126;SDS011;29786;50.798;7.302;2022-09-13T02:43:17;4.8;;;2.7;;
44126;SDS011;29786;50.798;7.302;2022-09-13T02:44:29;5.3;;;2.8;;
44126;SDS011;29786;50.798;7.302;2022-09-13T02:45:14;4.7;;;2.9;;
44126;SDS011;29786;50.798;7.302;2022-09-13T02:47:51;6.8;;;3.1;;
44126;SDS011;29786;50.798;7.302;2022-09-13T02:48:19;3.5;;;2.8;;
44126;SDS011;29786;50.798;7.302;2022-09-13T02:49:25;4.3;;;3;;
44126;SDS011;29786;50.798;7.302;2022-09-13T02:50:19;3.5;;;2.9;;
44126;SDS011;29786;50.798;7.302;2022-09-13T02:51:32;3.2;;;2.5;;
44126;SDS011;29786;50.798;7.302;2022-09-13T02:52:18;2.8;;;2.6;;
44126;SDS011;29786;50.798;7.302;2022-09-13T02:53:20;3.4;;;3.1;;
44126;SDS011;29786;50.798;7.302;2022-09-13T02:54:35;3.1;;;2.7;;
44126;SDS011;29786;50.798;7.302;2022-09-13T02:55:25;3.2;;;2.7;;
44126;SDS011;29786;50.798;7.302;2022-09-13T02:57:21;3;;;2.6;;
44126;SDS011;29786;50.798;7.302;2022-09-13T02:57:31;3.6;;;2.6;;
44126;SDS011;29786;50.798;7.302;2022-09-13T02:58:32;3.2;;;2.6;;
44126;SDS011;29786;50.798;7.302;2022-09-13T02:59:15;5.3;;;2.8;;
44126;SDS011;29786;50.798;7.302;2022-09-13T03:00:14;2.8;;;2.6;;
44126;SDS011;29786;50.798;7.302;2022-09-13T03:01:14;2.8;;;2.5;;
44126;SDS011;29786;50.798;7.302;2022-09-13T03:02:15;4.7;;;3;;
44126;SDS011;29786;50.798;7.302;2022-09-13T03:03:15;4.3;;;2.4;;
44126;SDS011;29786;50.798;7.302;2022-09-13T03:04:14;3.5;;;2.8;;
44126;SDS011;29786;50.798;7.302;2022-09-13T03:05:15;3.2;;;2.5;;
44126;SDS011;29786;50.798;7.302;2022-09-13T03:06:30;3.2;;;2.5;;
44126;SDS011;29786;50.798;7.302;2022-09-13T03:07:14;3.9;;;2.5;;
44126;SDS011;29786;50.798;7.302;2022-09-13T03:08:14;2.6;;;2.4;;
44126;SDS011;29786;50.798;7.302;2022-09-13T03:09:14;3;;;2.8;;
44126;SDS011;29786;50.798;7.302;2022-09-13T03:10:14;3.1;;;2.8;;
44126;SDS011;29786;50.798;7.302;2022-09-13T03:12:17;3.7;;;2.7;;
44126;SDS011;29786;50.798;7.302;2022-09-13T03:12:20;5.5;;;2.7;;
44126;SDS011;29786;50.798;7.302;2022-09-13T03:13:20;2.6;;;2.4;;
44126;SDS011;29786;50.798;7.302;2022-09-13T03:15:23;5.1;;;2.7;;
44126;SDS011;29786;50.798;7.302;2022-09-13T03:15:51;3.3;;;2.6;;
44126;SDS011;29786;50.798;7.302;2022-09-13T03:17:20;3.4;;;2.8;;
44126;SDS011;29786;50.798;7.302;2022-09-13T03:18:18;2.9;;;2.6;;
44126;SDS011;29786;50.798;7.302;2022-09-13T03:19:27;2.7;;;2.5;;
44126;SDS011;29786;50.798;7.302;2022-09-13T03:20:15;2.9;;;2.6;;
44126;SDS011;29786;50.798;7.302;2022-09-13T03:22:18;2.6;;;2.4;;
44126;SDS011;29786;50.798;7.302;2022-09-13T03:23:53;4.7;;;2.8;;
44126;SDS011;29786;50.798;7.302;2022-09-13T03:24:17;3.5;;;2.7;;
44126;SDS011;29786;50.798;7.302;2022-09-13T03:25:55;3;;;2.7;;
44126;SDS011;29786;50.798;7.302;2022-09-13T03:27:21;4.1;;;2.7;;
44126;SDS011;29786;50.798;7.302;2022-09-13T03:28:19;4.5;;;2.8;;
44126;SDS011;29786;50.798;7.302;2022-09-13T03:29:31;3.6;;;3;;
44126;SDS011;29786;50.798;7.302;2022-09-13T03:30:14;3.3;;;2.7;;
44126;SDS011;29786;50.798;7.302;2022-09-13T03:31:17;3.1;;;2.8;;
44126;SDS011;29786;50.798;7.302;2022-09-13T03:32:17;3.5;;;2.8;;
44126;SDS011;29786;50.798;7.302;2022-09-13T03:33:18;3.2;;;2.5;;
44126;SDS011;29786;50.798;7.302;2022-09-13T03:34:33;2.8;;;2.5;;
44126;SDS011;29786;50.798;7.302;2022-09-13T03:35:17;4.8;;;2.7;;
44126;SDS011;29786;50.798;7.302;2022-09-13T03:36:18;3.1;;;2.7;;
44126;SDS011;29786;50.798;7.302;2022-09-13T03:37:17;2.5;;;2.3;;
44126;SDS011;29786;50.798;7.302;2022-09-13T03:38:15;4.1;;;2.6;;
44126;SDS011;29786;50.798;7.302;2022-09-13T03:39:19;3.7;;;2.7;;
44126;SDS011;29786;50.798;7.302;2022-09-13T03:40:18;2.9;;;2.2;;
44126;SDS011;29786;50.798;7.302;2022-09-13T03:41:16;3;;;2.7;;
44126;SDS011;29786;50.798;7.302;2022-09-13T03:42:21;2.7;;;2.5;;
44126;SDS011;29786;50.798;7.302;2022-09-13T03:43:17;3.5;;;2.8;;
44126;SDS011;29786;50.798;7.302;2022-09-13T03:44:14;2.7;;;2.5;;
44126;SDS011;29786;50.798;7.302;2022-09-13T03:45:15;3;;;2.5;;
44126;SDS011;29786;50.798;7.302;2022-09-13T03:46:16;3.8;;;2.7;;
44126;SDS011;29786;50.798;7.302;2022-09-13T03:47:15;3.4;;;2.6;;
44126;SDS011;29786;50.798;7.302;2022-09-13T03:48:15;2.8;;;2.2;;
44126;SDS011;29786;50.798;7.302;2022-09-13T03:49:15;3;;;2.7;;
44126;SDS011;29786;50.798;7.302;2022-09-13T03:50:16;5.4;;;2.9;;
44126;SDS011;29786;50.798;7.302;2022-09-13T03:51:14;3.3;;;2.5;;
44126;SDS011;29786;50.798;7.302;2022-09-13T03:52:14;3.8;;;2.4;;
44126;SDS011;29786;50.798;7.302;2022-09-13T03:53:22;3.3;;;2.7;;
44126;SDS011;29786;50.798;7.302;2022-09-13T03:54:19;4.3;;;2.7;;
44126;SDS011;29786;50.798;7.302;2022-09-13T03:55:16;3.2;;;2.6;;
44126;SDS011;29786;50.798;7.302;2022-09-13T03:56:15;3.6;;;2.7;;
44126;SDS011;29786;50.798;7.302;2022-09-13T03:57:15;3.9;;;2.9;;
44126;SDS011;29786;50.798;7.302;2022-09-13T03:58:16;4.4;;;3;;
44126;SDS011;29786;50.798;7.302;2022-09-13T03:59:14;3.9;;;3.2;;
44126;SDS011;29786;50.798;7.302;2022-09-13T04:00:14;3.3;;;2.9;;
44126;SDS011;29786;50.798;7.302;2022-09-13T04:01:19;2.8;;;2.5;;
44126;SDS011;29786;50.798;7.302;2022-09-13T04:02:15;4.8;;;2.6;;
44126;SDS011;29786;50.798;7.302;2022-09-13T04:03:14;2.7;;;2.5;;
44126;SDS011;29786;50.798;7.302;2022-09-13T04:04:14;5.2;;;3;;
44126;SDS011;29786;50.798;7.302;2022-09-13T04:05:14;3.2;;;2.9;;
44126;SDS011;29786;50.798;7.302;2022-09-13T04:06:14;4;;;3;;
44126;SDS011;29786;50.798;7.302;2022-09-13T04:07:16;4.6;;;2.7;;
44126;SDS011;29786;50.798;7.302;2022-09-13T04:08:14;4.1;;;3;;
44126;SDS011;29786;50.798;7.302;2022-09-13T04:09:14;5.7;;;2.9;;
44126;SDS011;29786;50.798;7.302;2022-09-13T04:10:14;3.5;;;2.7;;
44126;SDS011;29786;50.798;7.302;2022-09-13T04:11:14;3.3;;;3;;
44126;SDS011;29786;50.798;7.302;2022-09-13T04:12:15;3.2;;;2.9;;
44126;SDS011;29786;50.798;7.302;2022-09-13T04:13:14;4.4;;;3.2;;
44126;SDS011;29786;50.798;7.302;2022-09-13T04:14:14;3.4;;;3.1;;
44126;SDS011;29786;50.798;7.302;2022-09-13T04:15:14;4.6;;;3.4;;
44126;SDS011;29786;50.798;7.302;2022-09-13T04:16:14;4.1;;;3.1;;
44126;SDS011;29786;50.798;7.302;2022-09-13T04:17:14;4.6;;;3.2;;
44126;SDS011;29786;50.798;7.302;2022-09-13T04:18:19;3.6;;;3;;
44126;SDS011;29786;50.798;7.302;2022-09-13T04:19:14;4.7;;;3;;
44126;SDS011;29786;50.798;7.302;2022-09-13T04:20:14;4.8;;;3;;
44126;SDS011;29786;50.798;7.302;2022-09-13T04:21:14;5.2;;;3.6;;
44126;SDS011;29786;50.798;7.302;2022-09-13T04:22:14;4.4;;;4;;
44126;SDS011;29786;50.798;7.302;2022-09-13T04:23:14;6.1;;;4.3;;
44126;SDS011;29786;50.798;7.302;2022-09-13T04:24:15;3.6;;;3.3;;
44126;SDS011;29786;50.798;7.302;2022-09-13T04:25:14;5.7;;;3.3;;
44126;SDS011;29786;50.798;7.302;2022-09-13T04:26:14;4.7;;;2.9;;
44126;SDS011;29786;50.798;7.302;2022-09-13T04:27:14;3.5;;;3.2;;
44126;SDS011;29786;50.798;7.302;2022-09-13T04:28:15;4;;;3.2;;
44126;SDS011;29786;50.798;7.302;2022-09-13T04:29:14;4.3;;;2.8;;
44126;SDS011;29786;50.798;7.302;2022-09-13T04:30:14;6.1;;;3.2;;
44126;SDS011;29786;50.798;7.302;2022-09-13T04:31:14;3.3;;;3;;
44126;SDS011;29786;50.798;7.302;2022-09-13T04:32:14;3.3;;;2.9;;
44126;SDS011;29786;50.798;7.302;2022-09-13T04:33:14;3.7;;;3;;
44126;SDS011;29786;50.798;7.302;2022-09-13T04:34:14;4.5;;;3;;
44126;SDS011;29786;50.798;7.302;2022-09-13T04:35:14;4;;;2.8;;
44126;SDS011;29786;50.798;7.302;2022-09-13T04:36:15;3.7;;;2.9;;
44126;SDS011;29786;50.798;7.302;2022-09-13T04:37:14;4.1;;;2.9;;
44126;SDS011;29786;50.798;7.302;2022-09-13T04:38:14;3;;;2.7;;
44126;SDS011;29786;50.798;7.302;2022-09-13T04:39:14;4;;;3;;
44126;SDS011;29786;50.798;7.302;2022-09-13T04:40:14;6.4;;;2.7;;
44126;SDS011;29786;50.798;7.302;2022-09-13T04:41:14;3.7;;;2.9;;
44126;SDS011;29786;50.798;7.302;2022-09-13T04:42:14;3.4;;;2.5;;
44126;SDS011;29786;50.798;7.302;2022-09-13T04:43:14;4.2;;;2.9;;
44126;SDS011;29786;50.798;7.302;2022-09-13T04:44:15;4.9;;;2.8;;
44126;SDS011;29786;50.798;7.302;2022-09-13T04:45:14;3.8;;;2.6;;
44126;SDS011;29786;50.798;7.302;2022-09-13T04:46:14;2.8;;;2.6;;
44126;SDS011;29786;50.798;7.302;2022-09-13T04:47:14;3.1;;;2.7;;
44126;SDS011;29786;50.798;7.302;2022-09-13T04:48:15;3.7;;;2.7;;
44126;SDS011;29786;50.798;7.302;2022-09-13T04:49:15;3.1;;;2.7;;
44126;SDS011;29786;50.798;7.302;2022-09-13T04:50:14;3.2;;;2.6;;
44126;SDS011;29786;50.798;7.302;2022-09-13T04:51:14;2.9;;;2.7;;
44126;SDS011;29786;50.798;7.302;2022-09-13T04:52:14;4;;;2.7;;
44126;SDS011;29786;50.798;7.302;2022-09-13T04:53:15;4.5;;;2.6;;
44126;SDS011;29786;50.798;7.302;2022-09-13T04:54:14;3;;;2.5;;
44126;SDS011;29786;50.798;7.302;2022-09-13T04:55:14;3.3;;;2.4;;
44126;SDS011;29786;50.798;7.302;2022-09-13T04:56:14;3.1;;;2.8;;
44126;SDS011;29786;50.798;7.302;2022-09-13T04:57:14;3;;;2.7;;
44126;SDS011;29786;50.798;7.302;2022-09-13T04:58:14;4;;;2.6;;
44126;SDS011;29786;50.798;7.302;2022-09-13T04:59:14;2.7;;;2.5;;
44126;SDS011;29786;50.798;7.302;2022-09-13T05:00:14;2.6;;;2.3;;
44126;SDS011;29786;50.798;7.302;2022-09-13T05:01:14;2.8;;;2.4;;
44126;SDS011;29786;50.798;7.302;2022-09-13T05:02:14;3.1;;;2.4;;
44126;SDS011;29786;50.798;7.302;2022-09-13T05:03:14;3;;;2.4;;
44126;SDS011;29786;50.798;7.302;2022-09-13T05:04:14;3.6;;;2.7;;
44126;SDS011;29786;50.798;7.302;2022-09-13T05:05:14;3.1;;;2.6;;
44126;SDS011;29786;50.798;7.302;2022-09-13T05:06:15;6.2;;;2.8;;
44126;SDS011;29786;50.798;7.302;2022-09-13T05:07:14;2.7;;;2.5;;
44126;SDS011;29786;50.798;7.302;2022-09-13T05:08:14;4.2;;;2.6;;
44126;SDS011;29786;50.798;7.302;2022-09-13T05:09:14;4.7;;;2.8;;
44126;SDS011;29786;50.798;7.302;2022-09-13T05:10:14;3.7;;;2.8;;
44126;SDS011;29786;50.798;7.302;2022-09-13T05:11:14;5;;;3;;
44126;SDS011;29786;50.798;7.302;2022-09-13T05:12:14;3.2;;;2.8;;
44126;SDS011;29786;50.798;7.302;2022-09-13T05:13:14;3.7;;;2.7;;
44126;SDS011;29786;50.798;7.302;2022-09-13T05:14:14;7.4;;;2.4;;
44126;SDS011;29786;50.798;7.302;2022-09-13T05:15:14;3;;;2.6;;
44126;SDS011;29786;50.798;7.302;2022-09-13T05:16:14;3.4;;;2.6;;
44126;SDS011;29786;50.798;7.302;2022-09-13T05:17:14;5.2;;;2.7;;
44126;SDS011;29786;50.798;7.302;2022-09-13T05:18:14;2.7;;;2.5;;
44126;SDS011;29786;50.798;7.302;2022-09-13T05:19:14;4.7;;;2.9;;
44126;SDS011;29786;50.798;7.302;2022-09-13T05:20:14;4.2;;;2.7;;
44126;SDS011;29786;50.798;7.302;2022-09-13T05:21:14;4;;;3.5;;
44126;SDS011;29786;50.798;7.302;2022-09-13T05:22:14;4;;;2.9;;
44126;SDS011;29786;50.798;7.302;2022-09-13T05:23:14;4.4;;;3.1;;
44126;SDS011;29786;50.798;7.302;2022-09-13T05:24:14;5.3;;;3.2;;
44126;SDS011;29786;50.798;7.302;2022-09-13T05:25:14;3.5;;;2.7;;
44126;SDS011;29786;50.798;7.302;2022-09-13T05:26:15;3.5;;;2.9;;
44126;SDS011;29786;50.798;7.302;2022-09-13T05:27:14;5.1;;;3.2;;
44126;SDS011;29786;50.798;7.302;2022-09-13T05:28:14;3.6;;;2.8;;
44126;SDS011;29786;50.798;7.302;2022-09-13T05:30:14;6.2;;;3;;
44126;SDS011;29786;50.798;7.302;2022-09-13T05:31:19;5.2;;;3.2;;
44126;SDS011;29786;50.798;7.302;2022-09-13T05:32:14;4.1;;;3;;
44126;SDS011;29786;50.798;7.302;2022-09-13T05:33:14;5;;;3;;
44126;SDS011;29786;50.798;7.302;2022-09-13T05:34:15;4.8;;;3;;
44126;SDS011;29786;50.798;7.302;2022-09-13T05:35:14;3.9;;;3;;
44126;SDS011;29786;50.798;7.302;2022-09-13T05:36:15;4.7;;;3.4;;
44126;SDS011;29786;50.798;7.302;2022-09-13T05:37:14;6.7;;;3.4;;
44126;SDS011;29786;50.798;7.302;2022-09-13T05:38:15;3.4;;;2.9;;
44126;SDS011;29786;50.798;7.302;2022-09-13T05:39:15;4.6;;;3.4;;
44126;SDS011;29786;50.798;7.302;2022-09-13T05:40:14;4.4;;;3.2;;
44126;SDS011;29786;50.798;7.302;2022-09-13T05:41:14;4.9;;;3.3;;
44126;SDS011;29786;50.798;7.302;2022-09-13T05:42:14;4.7;;;3.5;;
44126;SDS011;29786;50.798;7.302;2022-09-13T05:43:14;4.7;;;3.3;;
44126;SDS011;29786;50.798;7.302;2022-09-13T05:44:14;4.7;;;3.3;;
44126;SDS011;29786;50.798;7.302;2022-09-13T05:45:14;5.1;;;3.5;;
44126;SDS011;29786;50.798;7.302;2022-09-13T05:46:16;3.9;;;3.5;;
44126;SDS011;29786;50.798;7.302;2022-09-13T05:47:14;5.6;;;3.2;;
44126;SDS011;29786;50.798;7.302;2022-09-13T05:48:14;5.7;;;3.9;;
44126;SDS011;29786;50.798;7.302;2022-09-13T05:49:14;5.3;;;3.4;;
44126;SDS011;29786;50.798;7.302;2022-09-13T05:50:14;5.9;;;3.5;;
44126;SDS011;29786;50.798;7.302;2022-09-13T05:51:16;4.5;;;3.5;;
44126;SDS011;29786;50.798;7.302;2022-09-13T05:52:14;3.8;;;3.1;;
44126;SDS011;29786;50.798;7.302;2022-09-13T05:53:14;4.5;;;3.1;;
44126;SDS011;29786;50.798;7.302;2022-09-13T05:54:14;4.7;;;3.1;;
44126;SDS011;29786;50.798;7.302;2022-09-13T05:55:14;4;;;3;;
44126;SDS011;29786;50.798;7.302;2022-09-13T05:56:16;5;;;3.1;;
44126;SDS011;29786;50.798;7.302;2022-09-13T05:57:14;4.3;;;3.1;;
44126;SDS011;29786;50.798;7.302;2022-09-13T05:58:14;4.2;;;3.1;;
44126;SDS011;29786;50.798;7.302;2022-09-13T05:59:14;3.5;;;3.1;;
44126;SDS011;29786;50.798;7.302;2022-09-13T06:00:15;3.9;;;3.3;;
44126;SDS011;29786;50.798;7.302;2022-09-13T06:01:15;4.1;;;3.5;;
44126;SDS011;29786;50.798;7.302;2022-09-13T06:02:14;5.5;;;3.5;;
44126;SDS011;29786;50.798;7.302;2022-09-13T06:03:14;4.8;;;3.4;;
44126;SDS011;29786;50.798;7.302;2022-09-13T06:04:14;4.2;;;3.3;;
44126;SDS011;29786;50.798;7.302;2022-09-13T06:05:14;4.6;;;3.3;;
44126;SDS011;29786;50.798;7.302;2022-09-13T06:06:15;5.2;;;4;;
44126;SDS011;29786;50.798;7.302;2022-09-13T06:07:14;3.6;;;3.2;;
44126;SDS011;29786;50.798;7.302;2022-09-13T06:08:14;4.1;;;3.1;;
44126;SDS011;29786;50.798;7.302;2022-09-13T06:09:14;4.5;;;3.1;;
44126;SDS011;29786;50.798;7.302;2022-09-13T06:10:14;4.4;;;3.3;;
44126;SDS011;29786;50.798;7.302;2022-09-13T06:11:14;4.9;;;3.1;;
44126;SDS011;29786;50.798;7.302;2022-09-13T06:12:14;6.3;;;3.6;;
44126;SDS011;29786;50.798;7.302;2022-09-13T06:13:14;4.4;;;3.2;;
44126;SDS011;29786;50.798;7.302;2022-09-13T06:14:14;5.6;;;3.3;;
44126;SDS011;29786;50.798;7.302;2022-09-13T06:15:14;4.5;;;3.3;;
44126;SDS011;29786;50.798;7.302;2022-09-13T06:16:14;6;;;3.5;;
44126;SDS011;29786;50.798;7.302;2022-09-13T06:17:14;4.1;;;3.1;;
44126;SDS011;29786;50.798;7.302;2022-09-13T06:18:14;4.7;;;3.2;;
44126;SDS011;29786;50.798;7.302;2022-09-13T06:19:14;4.5;;;3.3;;
44126;SDS011;29786;50.798;7.302;2022-09-13T06:20:14;3.8;;;2.9;;
44126;SDS011;29786;50.798;7.302;2022-09-13T06:21:15;5;;;3.3;;
44126;SDS011;29786;50.798;7.302;2022-09-13T06:22:14;5;;;3.1;;
44126;SDS011;29786;50.798;7.302;2022-09-13T06:23:15;5.4;;;3.1;;